sensor_id;sensor_type;location;lat;lon;timestamp;P1;durP1;ratioP1;P2;durP2;ratioP2
36379;SDS011;22411;53.016;18.632;2022-08-21T00:01:06;6.75;;;4.10;;
36379;SDS011;22411;53.016;18.632;2022-08-21T00:03:35;12.33;;;5.43;;
36379;SDS011;22411;53.016;18.632;2022-08-21T00:06:04;9.02;;;4.57;;
36379;SDS011;22411;53.016;18.632;2022-08-21T00:08:30;7.60;;;4.63;;
36379;SDS011;22411;53.016;18.632;2022-08-21T00:10:57;8.88;;;4.25;;
36379;SDS011;22411;53.016;18.632;2022-08-21T00:13:23;12.70;;;4.90;;
36379;SDS011;22411;53.016;18.632;2022-08-21T00:15:49;10.50;;;5.25;;
36379;SDS011;22411;53.016;18.632;2022-08-21T00:18:15;6.35;;;5.35;;
36379;SDS011;22411;53.016;18.632;2022-08-21T00:20:42;6.38;;;5.28;;
36379;SDS011;22411;53.016;18.632;2022-08-21T00:23:09;12.38;;;5.90;;
36379;SDS011;22411;53.016;18.632;2022-08-21T00:25:36;8.63;;;5.38;;
36379;SDS011;22411;53.016;18.632;2022-08-21T00:28:03;12.13;;;6.00;;
36379;SDS011;22411;53.016;18.632;2022-08-21T00:30:31;7.63;;;4.90;;
36379;SDS011;22411;53.016;18.632;2022-08-21T00:32:58;9.57;;;5.93;;
36379;SDS011;22411;53.016;18.632;2022-08-21T00:35:28;11.57;;;5.57;;
36379;SDS011;22411;53.016;18.632;2022-08-21T00:37:57;9.65;;;6.18;;
36379;SDS011;22411;53.016;18.632;2022-08-21T00:40:25;9.43;;;6.45;;
36379;SDS011;22411;53.016;18.632;2022-08-21T00:42:54;9.43;;;6.43;;
36379;SDS011;22411;53.016;18.632;2022-08-21T00:45:21;9.65;;;6.03;;
36379;SDS011;22411;53.016;18.632;2022-08-21T00:47:48;10.00;;;5.45;;
36379;SDS011;22411;53.016;18.632;2022-08-21T00:50:15;12.02;;;6.50;;
36379;SDS011;22411;53.016;18.632;2022-08-21T00:52:41;10.65;;;5.78;;
36379;SDS011;22411;53.016;18.632;2022-08-21T00:55:08;8.93;;;5.00;;
36379;SDS011;22411;53.016;18.632;2022-08-21T00:57:38;12.43;;;6.18;;
36379;SDS011;22411;53.016;18.632;2022-08-21T01:00:16;10.57;;;7.28;;
36379;SDS011;22411;53.016;18.632;2022-08-21T01:02:47;9.77;;;6.32;;
36379;SDS011;22411;53.016;18.632;2022-08-21T01:05:13;8.98;;;6.68;;
36379;SDS011;22411;53.016;18.632;2022-08-21T01:07:40;11.55;;;7.43;;
36379;SDS011;22411;53.016;18.632;2022-08-21T01:10:07;12.10;;;8.05;;
36379;SDS011;22411;53.016;18.632;2022-08-21T01:12:33;9.35;;;7.50;;
36379;SDS011;22411;53.016;18.632;2022-08-21T01:15:03;9.05;;;6.97;;
36379;SDS011;22411;53.016;18.632;2022-08-21T01:17:31;12.18;;;7.55;;
36379;SDS011;22411;53.016;18.632;2022-08-21T01:19:58;14.63;;;6.80;;
36379;SDS011;22411;53.016;18.632;2022-08-21T01:22:26;9.95;;;7.35;;
36379;SDS011;22411;53.016;18.632;2022-08-21T01:24:53;14.07;;;7.22;;
36379;SDS011;22411;53.016;18.632;2022-08-21T01:27:18;10.07;;;6.90;;
36379;SDS011;22411;53.016;18.632;2022-08-21T01:29:55;9.35;;;7.20;;
36379;SDS011;22411;53.016;18.632;2022-08-21T01:34:51;9.82;;;7.25;;
36379;SDS011;22411;53.016;18.632;2022-08-21T01:37:18;9.95;;;6.53;;
36379;SDS011;22411;53.016;18.632;2022-08-21T01:39:46;11.70;;;8.98;;
36379;SDS011;22411;53.016;18.632;2022-08-21T01:42:12;13.13;;;8.30;;
36379;SDS011;22411;53.016;18.632;2022-08-21T01:44:39;15.52;;;8.55;;
36379;SDS011;22411;53.016;18.632;2022-08-21T01:47:07;12.73;;;8.93;;
36379;SDS011;22411;53.016;18.632;2022-08-21T01:49:37;14.15;;;9.75;;
36379;SDS011;22411;53.016;18.632;2022-08-21T01:52:04;13.80;;;9.68;;
36379;SDS011;22411;53.016;18.632;2022-08-21T01:54:30;14.88;;;10.32;;
36379;SDS011;22411;53.016;18.632;2022-08-21T01:56:56;19.52;;;10.73;;
36379;SDS011;22411;53.016;18.632;2022-08-21T01:59:24;15.65;;;10.25;;
36379;SDS011;22411;53.016;18.632;2022-08-21T02:01:51;15.15;;;11.00;;
36379;SDS011;22411;53.016;18.632;2022-08-21T02:04:19;15.48;;;10.70;;
36379;SDS011;22411;53.016;18.632;2022-08-21T02:06:45;11.00;;;9.65;;
36379;SDS011;22411;53.016;18.632;2022-08-21T02:09:12;14.27;;;11.27;;
36379;SDS011;22411;53.016;18.632;2022-08-21T02:11:39;14.20;;;10.50;;
36379;SDS011;22411;53.016;18.632;2022-08-21T02:14:10;16.08;;;11.13;;
36379;SDS011;22411;53.016;18.632;2022-08-21T02:16:37;17.73;;;11.68;;
36379;SDS011;22411;53.016;18.632;2022-08-21T02:19:04;15.38;;;10.35;;
36379;SDS011;22411;53.016;18.632;2022-08-21T02:21:30;19.90;;;11.60;;
36379;SDS011;22411;53.016;18.632;2022-08-21T02:23:57;15.63;;;9.65;;
36379;SDS011;22411;53.016;18.632;2022-08-21T02:26:23;16.13;;;10.02;;
36379;SDS011;22411;53.016;18.632;2022-08-21T02:28:49;14.48;;;10.10;;
36379;SDS011;22411;53.016;18.632;2022-08-21T02:31:15;13.77;;;9.98;;
36379;SDS011;22411;53.016;18.632;2022-08-21T02:33:41;16.25;;;9.98;;
36379;SDS011;22411;53.016;18.632;2022-08-21T02:36:08;15.95;;;10.63;;
36379;SDS011;22411;53.016;18.632;2022-08-21T02:38:36;14.15;;;9.82;;
36379;SDS011;22411;53.016;18.632;2022-08-21T02:41:08;15.25;;;9.02;;
36379;SDS011;22411;53.016;18.632;2022-08-21T02:43:39;11.80;;;9.32;;
36379;SDS011;22411;53.016;18.632;2022-08-21T02:46:05;13.45;;;9.73;;
36379;SDS011;22411;53.016;18.632;2022-08-21T02:48:33;13.77;;;9.15;;
36379;SDS011;22411;53.016;18.632;2022-08-21T02:51:01;13.93;;;10.50;;
36379;SDS011;22411;53.016;18.632;2022-08-21T02:53:31;14.85;;;9.77;;
36379;SDS011;22411;53.016;18.632;2022-08-21T02:56:00;17.08;;;10.35;;
36379;SDS011;22411;53.016;18.632;2022-08-21T02:58:29;14.88;;;9.63;;
36379;SDS011;22411;53.016;18.632;2022-08-21T03:00:57;15.75;;;10.40;;
36379;SDS011;22411;53.016;18.632;2022-08-21T03:03:24;17.95;;;10.73;;
36379;SDS011;22411;53.016;18.632;2022-08-21T03:05:51;17.55;;;11.38;;
36379;SDS011;22411;53.016;18.632;2022-08-21T03:08:17;14.70;;;9.98;;
36379;SDS011;22411;53.016;18.632;2022-08-21T03:10:45;16.48;;;9.65;;
36379;SDS011;22411;53.016;18.632;2022-08-21T03:13:13;14.07;;;9.73;;
36379;SDS011;22411;53.016;18.632;2022-08-21T03:15:40;10.93;;;9.77;;
36379;SDS011;22411;53.016;18.632;2022-08-21T03:18:07;13.73;;;8.85;;
36379;SDS011;22411;53.016;18.632;2022-08-21T03:20:33;18.88;;;9.98;;
36379;SDS011;22411;53.016;18.632;2022-08-21T03:23:01;17.73;;;9.60;;
36379;SDS011;22411;53.016;18.632;2022-08-21T03:25:28;13.52;;;8.55;;
36379;SDS011;22411;53.016;18.632;2022-08-21T03:27:57;18.67;;;10.48;;
36379;SDS011;22411;53.016;18.632;2022-08-21T03:30:24;12.75;;;8.32;;
36379;SDS011;22411;53.016;18.632;2022-08-21T03:32:50;13.38;;;9.73;;
36379;SDS011;22411;53.016;18.632;2022-08-21T03:35:17;15.02;;;10.00;;
36379;SDS011;22411;53.016;18.632;2022-08-21T03:37:44;10.68;;;8.85;;
36379;SDS011;22411;53.016;18.632;2022-08-21T03:40:11;12.15;;;8.68;;
36379;SDS011;22411;53.016;18.632;2022-08-21T03:42:41;12.45;;;9.40;;
36379;SDS011;22411;53.016;18.632;2022-08-21T03:45:07;13.48;;;8.75;;
36379;SDS011;22411;53.016;18.632;2022-08-21T03:47:33;10.85;;;9.05;;
36379;SDS011;22411;53.016;18.632;2022-08-21T03:50:01;9.98;;;8.77;;
36379;SDS011;22411;53.016;18.632;2022-08-21T03:52:28;12.80;;;8.65;;
36379;SDS011;22411;53.016;18.632;2022-08-21T03:54:54;13.27;;;8.93;;
36379;SDS011;22411;53.016;18.632;2022-08-21T03:57:20;12.55;;;9.27;;
36379;SDS011;22411;53.016;18.632;2022-08-21T03:59:46;16.27;;;9.20;;
36379;SDS011;22411;53.016;18.632;2022-08-21T04:02:12;14.23;;;9.20;;
36379;SDS011;22411;53.016;18.632;2022-08-21T04:04:42;13.57;;;9.57;;
36379;SDS011;22411;53.016;18.632;2022-08-21T04:07:08;13.52;;;8.65;;
36379;SDS011;22411;53.016;18.632;2022-08-21T04:09:34;12.65;;;9.20;;
36379;SDS011;22411;53.016;18.632;2022-08-21T04:12:00;13.07;;;9.10;;
36379;SDS011;22411;53.016;18.632;2022-08-21T04:14:26;14.38;;;9.60;;
36379;SDS011;22411;53.016;18.632;2022-08-21T04:16:51;11.10;;;9.82;;
36379;SDS011;22411;53.016;18.632;2022-08-21T04:19:17;13.85;;;8.73;;
36379;SDS011;22411;53.016;18.632;2022-08-21T04:21:43;14.02;;;9.60;;
36379;SDS011;22411;53.016;18.632;2022-08-21T04:24:09;15.38;;;10.30;;
36379;SDS011;22411;53.016;18.632;2022-08-21T04:26:37;13.63;;;8.27;;
36379;SDS011;22411;53.016;18.632;2022-08-21T04:29:03;17.50;;;11.02;;
36379;SDS011;22411;53.016;18.632;2022-08-21T04:31:33;12.05;;;9.70;;
36379;SDS011;22411;53.016;18.632;2022-08-21T04:34:02;16.40;;;11.55;;
36379;SDS011;22411;53.016;18.632;2022-08-21T04:36:30;14.07;;;10.05;;
36379;SDS011;22411;53.016;18.632;2022-08-21T04:38:57;15.25;;;11.07;;
36379;SDS011;22411;53.016;18.632;2022-08-21T04:41:24;11.93;;;9.55;;
36379;SDS011;22411;53.016;18.632;2022-08-21T04:43:50;19.05;;;12.02;;
36379;SDS011;22411;53.016;18.632;2022-08-21T04:46:16;14.45;;;11.15;;
36379;SDS011;22411;53.016;18.632;2022-08-21T04:48:43;12.50;;;9.40;;
36379;SDS011;22411;53.016;18.632;2022-08-21T04:51:15;13.27;;;10.90;;
36379;SDS011;22411;53.016;18.632;2022-08-21T04:56:51;14.70;;;10.10;;
36379;SDS011;22411;53.016;18.632;2022-08-21T04:59:21;12.80;;;9.90;;
36379;SDS011;22411;53.016;18.632;2022-08-21T05:01:58;15.23;;;10.70;;
36379;SDS011;22411;53.016;18.632;2022-08-21T05:04:27;12.40;;;11.00;;
36379;SDS011;22411;53.016;18.632;2022-08-21T05:06:56;17.55;;;11.43;;
36379;SDS011;22411;53.016;18.632;2022-08-21T05:09:25;11.40;;;10.30;;
36379;SDS011;22411;53.016;18.632;2022-08-21T05:11:53;13.82;;;9.88;;
36379;SDS011;22411;53.016;18.632;2022-08-21T05:14:20;14.02;;;10.30;;
36379;SDS011;22411;53.016;18.632;2022-08-21T05:16:46;13.88;;;10.60;;
36379;SDS011;22411;53.016;18.632;2022-08-21T05:19:14;15.80;;;10.63;;
36379;SDS011;22411;53.016;18.632;2022-08-21T05:21:41;16.48;;;11.63;;
36379;SDS011;22411;53.016;18.632;2022-08-21T05:24:08;15.63;;;13.20;;
36379;SDS011;22411;53.016;18.632;2022-08-21T05:26:34;13.65;;;11.00;;
36379;SDS011;22411;53.016;18.632;2022-08-21T05:29:02;13.88;;;10.88;;
36379;SDS011;22411;53.016;18.632;2022-08-21T05:31:28;16.30;;;10.93;;
36379;SDS011;22411;53.016;18.632;2022-08-21T05:33:54;17.83;;;11.75;;
36379;SDS011;22411;53.016;18.632;2022-08-21T05:36:21;17.42;;;11.85;;
36379;SDS011;22411;53.016;18.632;2022-08-21T05:38:47;16.60;;;11.77;;
36379;SDS011;22411;53.016;18.632;2022-08-21T05:41:14;17.27;;;12.02;;
36379;SDS011;22411;53.016;18.632;2022-08-21T05:43:39;15.88;;;12.05;;
36379;SDS011;22411;53.016;18.632;2022-08-21T05:46:06;18.33;;;11.52;;
36379;SDS011;22411;53.016;18.632;2022-08-21T05:48:33;19.10;;;12.68;;
36379;SDS011;22411;53.016;18.632;2022-08-21T05:51:09;16.73;;;12.00;;
36379;SDS011;22411;53.016;18.632;2022-08-21T05:53:41;13.17;;;10.90;;
36379;SDS011;22411;53.016;18.632;2022-08-21T05:56:08;17.65;;;11.60;;
36379;SDS011;22411;53.016;18.632;2022-08-21T05:58:35;14.18;;;11.75;;
36379;SDS011;22411;53.016;18.632;2022-08-21T06:01:02;19.38;;;12.57;;
36379;SDS011;22411;53.016;18.632;2022-08-21T06:03:29;16.33;;;10.68;;
36379;SDS011;22411;53.016;18.632;2022-08-21T06:05:57;17.27;;;12.25;;
36379;SDS011;22411;53.016;18.632;2022-08-21T06:08:23;18.20;;;11.90;;
36379;SDS011;22411;53.016;18.632;2022-08-21T06:10:51;17.23;;;12.00;;
36379;SDS011;22411;53.016;18.632;2022-08-21T06:13:18;15.80;;;11.70;;
36379;SDS011;22411;53.016;18.632;2022-08-21T06:15:46;15.23;;;11.93;;
36379;SDS011;22411;53.016;18.632;2022-08-21T06:18:13;15.40;;;11.13;;
36379;SDS011;22411;53.016;18.632;2022-08-21T06:20:39;15.63;;;10.80;;
36379;SDS011;22411;53.016;18.632;2022-08-21T06:23:06;16.58;;;11.35;;
36379;SDS011;22411;53.016;18.632;2022-08-21T06:25:33;17.10;;;10.48;;
36379;SDS011;22411;53.016;18.632;2022-08-21T06:28:05;15.48;;;9.88;;
36379;SDS011;22411;53.016;18.632;2022-08-21T06:30:34;13.65;;;10.45;;
36379;SDS011;22411;53.016;18.632;2022-08-21T06:33:02;13.68;;;9.98;;
36379;SDS011;22411;53.016;18.632;2022-08-21T06:35:28;14.27;;;10.90;;
36379;SDS011;22411;53.016;18.632;2022-08-21T06:37:56;15.05;;;10.55;;
36379;SDS011;22411;53.016;18.632;2022-08-21T06:40:23;15.40;;;10.38;;
36379;SDS011;22411;53.016;18.632;2022-08-21T06:42:50;12.35;;;10.05;;
36379;SDS011;22411;53.016;18.632;2022-08-21T06:45:16;13.70;;;9.32;;
36379;SDS011;22411;53.016;18.632;2022-08-21T06:47:43;12.30;;;9.32;;
36379;SDS011;22411;53.016;18.632;2022-08-21T06:50:09;15.38;;;9.45;;
36379;SDS011;22411;53.016;18.632;2022-08-21T06:52:36;12.77;;;9.45;;
36379;SDS011;22411;53.016;18.632;2022-08-21T06:55:06;20.45;;;10.13;;
36379;SDS011;22411;53.016;18.632;2022-08-21T06:57:34;17.20;;;10.27;;
36379;SDS011;22411;53.016;18.632;2022-08-21T07:00:00;14.38;;;9.52;;
36379;SDS011;22411;53.016;18.632;2022-08-21T07:02:35;13.27;;;9.93;;
36379;SDS011;22411;53.016;18.632;2022-08-21T07:05:02;10.82;;;9.82;;
36379;SDS011;22411;53.016;18.632;2022-08-21T07:07:28;14.85;;;9.95;;
36379;SDS011;22411;53.016;18.632;2022-08-21T07:09:54;13.60;;;10.55;;
36379;SDS011;22411;53.016;18.632;2022-08-21T07:12:21;11.15;;;9.95;;
36379;SDS011;22411;53.016;18.632;2022-08-21T07:14:48;14.02;;;11.40;;
36379;SDS011;22411;53.016;18.632;2022-08-21T07:17:14;13.63;;;11.25;;
36379;SDS011;22411;53.016;18.632;2022-08-21T07:19:40;14.43;;;10.77;;
36379;SDS011;22411;53.016;18.632;2022-08-21T07:22:06;18.13;;;11.30;;
36379;SDS011;22411;53.016;18.632;2022-08-21T07:24:32;15.38;;;10.88;;
36379;SDS011;22411;53.016;18.632;2022-08-21T07:26:58;14.07;;;8.60;;
36379;SDS011;22411;53.016;18.632;2022-08-21T07:29:24;20.10;;;10.85;;
36379;SDS011;22411;53.016;18.632;2022-08-21T07:31:51;15.82;;;10.18;;
36379;SDS011;22411;53.016;18.632;2022-08-21T07:34:17;15.45;;;8.65;;
36379;SDS011;22411;53.016;18.632;2022-08-21T07:36:43;11.50;;;8.55;;
36379;SDS011;22411;53.016;18.632;2022-08-21T07:39:09;19.00;;;11.27;;
36379;SDS011;22411;53.016;18.632;2022-08-21T07:41:36;14.55;;;9.48;;
36379;SDS011;22411;53.016;18.632;2022-08-21T07:44:04;12.68;;;9.15;;
36379;SDS011;22411;53.016;18.632;2022-08-21T07:46:34;12.57;;;9.48;;
36379;SDS011;22411;53.016;18.632;2022-08-21T07:49:00;13.60;;;9.45;;
36379;SDS011;22411;53.016;18.632;2022-08-21T07:51:28;10.05;;;8.68;;
36379;SDS011;22411;53.016;18.632;2022-08-21T07:53:55;15.98;;;9.45;;
36379;SDS011;22411;53.016;18.632;2022-08-21T07:56:25;11.10;;;9.48;;
36379;SDS011;22411;53.016;18.632;2022-08-21T07:58:52;12.80;;;9.15;;
36379;SDS011;22411;53.016;18.632;2022-08-21T08:01:18;12.35;;;8.80;;
36379;SDS011;22411;53.016;18.632;2022-08-21T08:03:44;16.83;;;9.48;;
36379;SDS011;22411;53.016;18.632;2022-08-21T08:06:10;10.38;;;8.20;;
36379;SDS011;22411;53.016;18.632;2022-08-21T08:08:38;11.85;;;8.68;;
36379;SDS011;22411;53.016;18.632;2022-08-21T08:11:06;12.07;;;8.55;;
36379;SDS011;22411;53.016;18.632;2022-08-21T08:13:39;12.88;;;8.02;;
36379;SDS011;22411;53.016;18.632;2022-08-21T08:16:06;10.45;;;8.13;;
36379;SDS011;22411;53.016;18.632;2022-08-21T08:18:32;10.02;;;7.88;;
36379;SDS011;22411;53.016;18.632;2022-08-21T08:20:58;10.23;;;7.88;;
36379;SDS011;22411;53.016;18.632;2022-08-21T08:23:25;12.85;;;8.13;;
36379;SDS011;22411;53.016;18.632;2022-08-21T08:25:52;15.20;;;9.05;;
36379;SDS011;22411;53.016;18.632;2022-08-21T08:28:18;10.55;;;8.02;;
36379;SDS011;22411;53.016;18.632;2022-08-21T08:30:45;12.25;;;7.60;;
36379;SDS011;22411;53.016;18.632;2022-08-21T08:33:11;9.10;;;8.13;;
36379;SDS011;22411;53.016;18.632;2022-08-21T08:35:38;11.70;;;7.20;;
36379;SDS011;22411;53.016;18.632;2022-08-21T08:38:05;10.27;;;7.88;;
36379;SDS011;22411;53.016;18.632;2022-08-21T08:40:39;12.15;;;8.75;;
36379;SDS011;22411;53.016;18.632;2022-08-21T08:43:28;12.43;;;8.82;;
36379;SDS011;22411;53.016;18.632;2022-08-21T08:45:56;10.88;;;8.50;;
36379;SDS011;22411;53.016;18.632;2022-08-21T08:48:39;12.93;;;10.02;;
36379;SDS011;22411;53.016;18.632;2022-08-21T08:51:16;12.65;;;9.70;;
36379;SDS011;22411;53.016;18.632;2022-08-21T08:53:49;11.65;;;10.23;;
36379;SDS011;22411;53.016;18.632;2022-08-21T08:56:21;16.83;;;11.90;;
36379;SDS011;22411;53.016;18.632;2022-08-21T08:58:54;15.55;;;11.73;;
36379;SDS011;22411;53.016;18.632;2022-08-21T09:01:26;13.00;;;10.48;;
36379;SDS011;22411;53.016;18.632;2022-08-21T09:03:52;16.48;;;11.68;;
36379;SDS011;22411;53.016;18.632;2022-08-21T09:28:54;16.73;;;11.35;;
36379;SDS011;22411;53.016;18.632;2022-08-21T09:31:25;11.48;;;9.65;;
36379;SDS011;22411;53.016;18.632;2022-08-21T09:34:02;12.38;;;10.07;;
36379;SDS011;22411;53.016;18.632;2022-08-21T09:36:37;13.82;;;10.85;;
36379;SDS011;22411;53.016;18.632;2022-08-21T09:39:10;11.52;;;9.27;;
36379;SDS011;22411;53.016;18.632;2022-08-21T09:41:49;12.50;;;9.35;;
36379;SDS011;22411;53.016;18.632;2022-08-21T09:44:30;13.55;;;9.90;;
36379;SDS011;22411;53.016;18.632;2022-08-21T09:46:57;14.98;;;9.48;;
36379;SDS011;22411;53.016;18.632;2022-08-21T09:49:34;11.23;;;8.93;;
36379;SDS011;22411;53.016;18.632;2022-08-21T09:52:02;14.48;;;11.45;;
36379;SDS011;22411;53.016;18.632;2022-08-21T09:54:33;13.65;;;9.20;;
36379;SDS011;22411;53.016;18.632;2022-08-21T09:57:12;14.13;;;9.10;;
36379;SDS011;22411;53.016;18.632;2022-08-21T10:02:51;10.77;;;7.95;;
36379;SDS011;22411;53.016;18.632;2022-08-21T10:05:20;13.93;;;9.70;;
36379;SDS011;22411;53.016;18.632;2022-08-21T10:07:49;11.88;;;9.20;;
36379;SDS011;22411;53.016;18.632;2022-08-21T10:10:18;12.13;;;8.73;;
36379;SDS011;22411;53.016;18.632;2022-08-21T10:12:47;9.70;;;8.00;;
36379;SDS011;22411;53.016;18.632;2022-08-21T10:18:21;11.70;;;8.75;;
36379;SDS011;22411;53.016;18.632;2022-08-21T10:23:44;11.38;;;9.18;;
36379;SDS011;22411;53.016;18.632;2022-08-21T10:26:28;15.18;;;10.90;;
36379;SDS011;22411;53.016;18.632;2022-08-21T10:32:12;12.02;;;10.63;;
36379;SDS011;22411;53.016;18.632;2022-08-21T10:40:24;14.98;;;10.15;;
36379;SDS011;22411;53.016;18.632;2022-08-21T10:48:33;13.10;;;11.63;;
36379;SDS011;22411;53.016;18.632;2022-08-21T10:54:05;13.43;;;11.80;;
36379;SDS011;22411;53.016;18.632;2022-08-21T10:56:41;16.98;;;12.35;;
36379;SDS011;22411;53.016;18.632;2022-08-21T11:05:07;18.35;;;12.40;;
36379;SDS011;22411;53.016;18.632;2022-08-21T11:07:43;14.77;;;11.65;;
36379;SDS011;22411;53.016;18.632;2022-08-21T11:10:31;17.95;;;11.65;;
36379;SDS011;22411;53.016;18.632;2022-08-21T11:13:15;12.98;;;11.68;;
36379;SDS011;22411;53.016;18.632;2022-08-21T11:15:55;14.93;;;11.93;;
36379;SDS011;22411;53.016;18.632;2022-08-21T11:18:36;14.73;;;12.33;;
36379;SDS011;22411;53.016;18.632;2022-08-21T11:27:05;16.23;;;12.77;;
36379;SDS011;22411;53.016;18.632;2022-08-21T11:29:43;14.48;;;12.23;;
36379;SDS011;22411;53.016;18.632;2022-08-21T11:32:32;12.82;;;11.50;;
36379;SDS011;22411;53.016;18.632;2022-08-21T11:51:50;12.55;;;10.52;;
36379;SDS011;22411;53.016;18.632;2022-08-21T11:57:23;10.35;;;9.35;;
36379;SDS011;22411;53.016;18.632;2022-08-21T11:59:59;11.13;;;10.00;;
36379;SDS011;22411;53.016;18.632;2022-08-21T12:02:33;10.15;;;8.45;;
36379;SDS011;22411;53.016;18.632;2022-08-21T12:05:05;7.43;;;6.82;;
36379;SDS011;22411;53.016;18.632;2022-08-21T12:07:35;7.10;;;6.40;;
36379;SDS011;22411;53.016;18.632;2022-08-21T12:10:05;7.63;;;6.03;;
36379;SDS011;22411;53.016;18.632;2022-08-21T12:12:37;6.30;;;5.63;;
36379;SDS011;22411;53.016;18.632;2022-08-21T12:15:14;8.38;;;6.57;;
36379;SDS011;22411;53.016;18.632;2022-08-21T12:18:01;6.00;;;5.47;;
36379;SDS011;22411;53.016;18.632;2022-08-21T12:20:34;5.43;;;5.03;;
36379;SDS011;22411;53.016;18.632;2022-08-21T12:25:37;5.57;;;5.10;;
36379;SDS011;22411;53.016;18.632;2022-08-21T12:28:08;6.63;;;5.47;;
36379;SDS011;22411;53.016;18.632;2022-08-21T12:30:39;5.05;;;4.68;;
36379;SDS011;22411;53.016;18.632;2022-08-21T12:35:43;5.40;;;5.00;;
36379;SDS011;22411;53.016;18.632;2022-08-21T12:38:12;4.97;;;4.47;;
36379;SDS011;22411;53.016;18.632;2022-08-21T12:40:45;9.02;;;4.45;;
36379;SDS011;22411;53.016;18.632;2022-08-21T12:43:18;4.35;;;3.90;;
36379;SDS011;22411;53.016;18.632;2022-08-21T12:46:02;4.85;;;4.45;;
36379;SDS011;22411;53.016;18.632;2022-08-21T12:48:35;6.18;;;5.57;;
36379;SDS011;22411;53.016;18.632;2022-08-21T12:51:13;6.07;;;4.78;;
36379;SDS011;22411;53.016;18.632;2022-08-21T12:53:43;6.30;;;5.80;;
36379;SDS011;22411;53.016;18.632;2022-08-21T12:56:14;6.15;;;5.65;;
36379;SDS011;22411;53.016;18.632;2022-08-21T12:58:46;5.72;;;5.20;;
36379;SDS011;22411;53.016;18.632;2022-08-21T13:01:22;9.52;;;6.40;;
36379;SDS011;22411;53.016;18.632;2022-08-21T13:03:53;6.57;;;4.78;;
36379;SDS011;22411;53.016;18.632;2022-08-21T13:06:21;9.50;;;5.47;;
36379;SDS011;22411;53.016;18.632;2022-08-21T13:08:50;8.07;;;5.50;;
36379;SDS011;22411;53.016;18.632;2022-08-21T13:11:21;5.18;;;4.07;;
36379;SDS011;22411;53.016;18.632;2022-08-21T13:13:49;5.18;;;4.68;;
36379;SDS011;22411;53.016;18.632;2022-08-21T13:16:22;5.75;;;4.32;;
36379;SDS011;22411;53.016;18.632;2022-08-21T13:18:54;6.90;;;5.28;;
36379;SDS011;22411;53.016;18.632;2022-08-21T13:21:33;4.40;;;4.03;;
36379;SDS011;22411;53.016;18.632;2022-08-21T13:24:10;5.20;;;4.55;;
36379;SDS011;22411;53.016;18.632;2022-08-21T13:26:40;6.10;;;4.25;;
36379;SDS011;22411;53.016;18.632;2022-08-21T13:29:07;5.28;;;3.97;;
36379;SDS011;22411;53.016;18.632;2022-08-21T13:31:37;4.97;;;4.20;;
36379;SDS011;22411;53.016;18.632;2022-08-21T13:34:04;4.22;;;3.83;;
36379;SDS011;22411;53.016;18.632;2022-08-21T13:36:34;4.97;;;3.67;;
36379;SDS011;22411;53.016;18.632;2022-08-21T13:39:03;3.88;;;3.58;;
36379;SDS011;22411;53.016;18.632;2022-08-21T13:41:34;4.90;;;3.50;;
36379;SDS011;22411;53.016;18.632;2022-08-21T13:44:14;3.97;;;3.58;;
36379;SDS011;22411;53.016;18.632;2022-08-21T13:46:41;4.25;;;2.92;;
36379;SDS011;22411;53.016;18.632;2022-08-21T13:49:08;5.05;;;3.30;;
36379;SDS011;22411;53.016;18.632;2022-08-21T13:51:35;5.13;;;4.10;;
36379;SDS011;22411;53.016;18.632;2022-08-21T13:54:13;3.60;;;3.30;;
36379;SDS011;22411;53.016;18.632;2022-08-21T13:56:45;3.35;;;2.83;;
36379;SDS011;22411;53.016;18.632;2022-08-21T13:59:22;10.18;;;3.53;;
36379;SDS011;22411;53.016;18.632;2022-08-21T14:02:10;4.55;;;3.00;;
36379;SDS011;22411;53.016;18.632;2022-08-21T14:04:39;3.25;;;2.95;;
36379;SDS011;22411;53.016;18.632;2022-08-21T14:07:26;4.20;;;2.97;;
36379;SDS011;22411;53.016;18.632;2022-08-21T14:10:05;4.45;;;3.05;;
36379;SDS011;22411;53.016;18.632;2022-08-21T14:12:38;3.50;;;2.50;;
36379;SDS011;22411;53.016;18.632;2022-08-21T14:15:09;4.45;;;3.10;;
36379;SDS011;22411;53.016;18.632;2022-08-21T14:17:39;4.63;;;2.40;;
36379;SDS011;22411;53.016;18.632;2022-08-21T14:20:08;4.22;;;1.75;;
36379;SDS011;22411;53.016;18.632;2022-08-21T14:22:37;2.25;;;1.35;;
36379;SDS011;22411;53.016;18.632;2022-08-21T14:25:08;3.17;;;2.38;;
36379;SDS011;22411;53.016;18.632;2022-08-21T14:30:42;2.05;;;1.50;;
36379;SDS011;22411;53.016;18.632;2022-08-21T14:33:12;3.00;;;1.48;;
36379;SDS011;22411;53.016;18.632;2022-08-21T14:35:44;4.57;;;1.65;;
36379;SDS011;22411;53.016;18.632;2022-08-21T14:38:14;3.30;;;1.90;;
36379;SDS011;22411;53.016;18.632;2022-08-21T14:40:47;2.72;;;1.42;;
36379;SDS011;22411;53.016;18.632;2022-08-21T14:43:37;2.88;;;1.48;;
36379;SDS011;22411;53.016;18.632;2022-08-21T14:46:11;5.10;;;1.77;;
36379;SDS011;22411;53.016;18.632;2022-08-21T14:48:40;2.65;;;1.77;;
36379;SDS011;22411;53.016;18.632;2022-08-21T14:51:11;5.28;;;2.28;;
36379;SDS011;22411;53.016;18.632;2022-08-21T14:53:40;3.45;;;2.17;;
36379;SDS011;22411;53.016;18.632;2022-08-21T14:56:09;2.17;;;1.63;;
36379;SDS011;22411;53.016;18.632;2022-08-21T14:58:40;2.67;;;1.65;;
36379;SDS011;22411;53.016;18.632;2022-08-21T15:01:16;4.45;;;1.73;;
36379;SDS011;22411;53.016;18.632;2022-08-21T15:03:45;2.58;;;1.77;;
36379;SDS011;22411;53.016;18.632;2022-08-21T15:06:16;5.57;;;2.28;;
36379;SDS011;22411;53.016;18.632;2022-08-21T15:08:50;2.40;;;1.05;;
36379;SDS011;22411;53.016;18.632;2022-08-21T15:11:21;3.72;;;1.35;;
36379;SDS011;22411;53.016;18.632;2022-08-21T15:13:55;3.80;;;2.17;;
36379;SDS011;22411;53.016;18.632;2022-08-21T15:16:23;4.97;;;1.10;;
36379;SDS011;22411;53.016;18.632;2022-08-21T15:18:49;1.73;;;0.95;;
36379;SDS011;22411;53.016;18.632;2022-08-21T15:21:20;1.83;;;0.98;;
36379;SDS011;22411;53.016;18.632;2022-08-21T15:23:52;2.63;;;0.80;;
36379;SDS011;22411;53.016;18.632;2022-08-21T15:26:25;2.88;;;1.00;;
36379;SDS011;22411;53.016;18.632;2022-08-21T15:28:56;2.15;;;1.05;;
36379;SDS011;22411;53.016;18.632;2022-08-21T15:31:36;2.10;;;0.80;;
36379;SDS011;22411;53.016;18.632;2022-08-21T15:34:23;1.77;;;0.55;;
36379;SDS011;22411;53.016;18.632;2022-08-21T15:36:57;2.08;;;0.70;;
36379;SDS011;22411;53.016;18.632;2022-08-21T15:39:29;1.63;;;0.80;;
36379;SDS011;22411;53.016;18.632;2022-08-21T15:42:01;2.25;;;0.90;;
36379;SDS011;22411;53.016;18.632;2022-08-21T15:44:29;4.05;;;1.80;;
36379;SDS011;22411;53.016;18.632;2022-08-21T15:46:58;2.17;;;1.05;;
36379;SDS011;22411;53.016;18.632;2022-08-21T15:49:24;2.95;;;0.73;;
36379;SDS011;22411;53.016;18.632;2022-08-21T15:51:52;2.65;;;0.95;;
36379;SDS011;22411;53.016;18.632;2022-08-21T15:54:26;2.55;;;0.77;;
36379;SDS011;22411;53.016;18.632;2022-08-21T15:56:58;1.38;;;0.50;;
36379;SDS011;22411;53.016;18.632;2022-08-21T15:59:26;1.63;;;0.93;;
36379;SDS011;22411;53.016;18.632;2022-08-21T16:01:52;1.45;;;0.80;;
36379;SDS011;22411;53.016;18.632;2022-08-21T16:04:20;2.05;;;0.85;;
36379;SDS011;22411;53.016;18.632;2022-08-21T16:06:49;3.47;;;0.80;;
36379;SDS011;22411;53.016;18.632;2022-08-21T16:09:15;3.08;;;1.23;;